Victoria, IL (61485)

1:04 PM CDT on April 28, 2017 (GMT -0500)
La Fayette (Knox County) | | Change Station
Active Advisory: Flood Warning

Elev 751 ft 41.10 °N, 90.00 °W | Updated 5 seconds ago

Rain
Rain
49.8 °F
Feels Like 49 °F
N
4.0
Wind Variable Wind from NNE

Today
High -- | Low -- °F
--% Chance of Precip.
Yesterday
High -- | Low -- °F
Precip. -- in
Pressure 29.83 in
Visibility 5.0 miles
Clouds Overcast 1100 ft
Windchill 49 °F
Dew Point 46 °F
Humidity 88%
Rainfall 0.02 in
Snow Depth Not available.
6:01 AM 7:54 PM
Waxing Crescent, 7% visible
METAR KGBG 281755Z AUTO 06010KT 5SM -RA OVC011 09/08 A2983 RMK AO2 P0004 60004 T00880081 10090 20051
Pressure 29.83 in
Visibility 5.0 miles
Clouds Overcast 1100 ft
Windchill 49 °F
Dew Point 46 °F
Humidity 88%
Rainfall 0.02 in
Snow Depth Not available.
6:01 AM 7:54 PM
Waxing Crescent, 7% visible
METAR KGBG 281755Z AUTO 06010KT 5SM -RA OVC011 09/08 A2983 RMK AO2 P0004 60004 T00880081 10090 20051

Get Your Daily Forecast Email!

Thanks for signing up!

Be on the lookout for a verification email in your inbox.

You'll start receiving severe weather alerts in your inbox..

×

10-Day Weather Forecast

Almanac

Astronomy

Apr. 28, 2017 Rise Set
Actual Time
Civil Twilight
Nautical Twilight
Astronomical Twilight
Moon
Length of Visible Light
Length of Day
Tomorrow will be .
, % of the Moon is Illuminated

Today's Extremes

State Highs State Lows

Community

WunderPhotos

WunderBlog® & News

Nearby

Air Quality

  Air Quality AQ Index Pollutant
Not available.

Snow Depth

Station Depth Elevation

Earthquake Activity

City Distance Mag. Time & Date
Minimum magnitude displayed is 2.5.

Coastal Water Temperatures

Place Temperature

Stations

Nearby Weather Stations

Station Location Temp. Windchill Dew Point Humidity Wind Precip. Elev Updated Type
                   

Watches & Warnings

Flood Warning
Issued: 10:47 AM CDT Apr. 28, 2017 – National Weather Service

The National Weather Service in Lincoln IL has issued a

* Flood Warning for
the spoon river at London Mills.
* From Sunday evening until Thursday morning.
* At 945 am Friday the stage was 6.4 feet.
* Flood stage is 15.0 feet.
* Minor flooding is forecast.
* Forecast... rise above flood stage by Sunday evening and continue to
rise to near 19.5 feet by early Tuesday morning.The river will fall
below flood stage by early Thursday morning.



                  Fld observed forecast 6am
location stg stg day time Sat sun Mon

Spoon river
London Mills 15 6.4 Fri 10 am 5.9 10.1 18.0


Lat... Lon 4081 9020 4079 9012 4070 9024 4058 9027
      4059 9036 4071 9032


Drh